createdAt,value
2022-12-15T00:00:29.564Z,23.70
2022-12-15T00:03:16.078Z,24.33
2022-12-15T00:06:02.536Z,25.07
2022-12-15T00:08:49.347Z,24.40
2022-12-15T00:11:36.438Z,24.50
2022-12-15T00:14:23.327Z,24.77
2022-12-15T00:17:09.482Z,24.10
2022-12-15T00:19:55.785Z,24.07
2022-12-15T00:22:42.497Z,24.57
2022-12-15T00:25:28.827Z,23.23
2022-12-15T00:28:16.884Z,24.20
2022-12-15T00:31:03.103Z,24.80
2022-12-15T00:33:49.309Z,24.30
2022-12-15T00:36:35.645Z,23.33
2022-12-15T00:39:04.106Z,25.10
2022-12-15T00:41:32.023Z,22.90
2022-12-15T00:44:00.202Z,25.20
2022-12-15T00:46:46.868Z,24.47
2022-12-15T00:49:33.126Z,24.10
2022-12-15T00:52:19.274Z,25.00
2022-12-15T00:55:05.607Z,25.03
2022-12-15T00:57:51.700Z,23.80
2022-12-15T01:00:39.332Z,26.40
2022-12-15T01:03:41.675Z,23.43
2022-12-15T01:06:35.097Z,24.10
2022-12-15T01:09:27.583Z,23.17
2022-12-15T01:12:13.882Z,26.13
2022-12-15T01:15:00.504Z,25.50
2022-12-15T01:17:47.423Z,23.40
2022-12-15T01:20:20.713Z,22.57
2022-12-15T01:22:55.573Z,21.70
2022-12-15T01:25:27.616Z,23.33
2022-12-15T01:27:55.489Z,22.40
2022-12-15T01:30:27.539Z,23.40
2022-12-15T01:32:55.265Z,24.30
2022-12-15T01:35:23.153Z,22.93
2022-12-15T01:37:50.803Z,25.57
2022-12-15T01:40:40.367Z,24.43
2022-12-15T01:43:32.117Z,22.80
2022-12-15T01:46:11.099Z,22.53
2022-12-15T01:49:15.793Z,24.07
2022-12-15T01:51:52.460Z,24.20
2022-12-15T01:54:41.062Z,22.17
2022-12-15T01:57:25.654Z,21.20
2022-12-15T02:00:04.021Z,23.37
2022-12-15T02:02:40.411Z,23.03
2022-12-15T02:05:10.444Z,23.00
2022-12-15T02:07:38.314Z,23.10
2022-12-15T02:10:10.406Z,24.27
2022-12-15T02:13:28.860Z,23.80
2022-12-15T02:16:32.560Z,22.10
2022-12-15T02:20:21.713Z,20.73
2022-12-15T02:22:57.916Z,22.13
2022-12-15T02:26:30.329Z,22.10
2022-12-15T02:29:42.712Z,23.43
2022-12-15T02:32:37.216Z,21.13
2022-12-15T02:35:47.307Z,22.40
2022-12-15T02:38:15.092Z,23.77
2022-12-15T02:40:43.062Z,22.10
2022-12-15T02:43:11.751Z,21.90
2022-12-15T02:46:46.053Z,24.03
2022-12-15T02:50:12.114Z,22.27
2022-12-15T02:53:28.926Z,22.20
2022-12-15T02:57:06.123Z,22.20
2022-12-15T03:00:01.189Z,22.97
2022-12-15T03:02:38.105Z,21.30
2022-12-15T03:05:08.392Z,23.10
2022-12-15T03:07:36.103Z,25.20
2022-12-15T03:10:07.834Z,23.67
2022-12-15T03:12:35.463Z,20.93
2022-12-15T03:15:03.601Z,23.00
2022-12-15T03:17:31.268Z,23.00
2022-12-15T03:19:58.863Z,23.00
2022-12-15T03:22:26.586Z,25.13
2022-12-15T03:24:54.408Z,25.07
2022-12-15T03:27:22.936Z,23.83
2022-12-15T03:29:50.623Z,25.50
2022-12-15T03:32:18.275Z,24.70
2022-12-15T03:34:45.944Z,24.20
2022-12-15T03:37:13.471Z,24.37
2022-12-15T03:39:41.108Z,25.27
2022-12-15T03:42:08.917Z,26.10
2022-12-15T03:44:36.560Z,25.70
2022-12-15T03:47:04.220Z,23.10
2022-12-15T03:49:31.832Z,25.83
2022-12-15T03:51:59.380Z,23.20
2022-12-15T03:54:26.973Z,26.43
2022-12-15T03:56:54.676Z,21.57
2022-12-15T03:59:22.158Z,22.97
2022-12-15T04:01:49.960Z,25.10
2022-12-15T04:04:17.717Z,24.13
2022-12-15T04:06:45.453Z,24.23
2022-12-15T04:09:12.970Z,22.50
2022-12-15T04:11:40.590Z,23.47
2022-12-15T04:14:09.977Z,26.83
2022-12-15T04:16:37.658Z,22.27
2022-12-15T04:19:23.701Z,24.30
2022-12-15T04:21:51.351Z,25.10
2022-12-15T04:24:37.652Z,23.50
2022-12-15T04:27:24.928Z,23.57
2022-12-15T04:30:11.180Z,24.30
2022-12-15T04:32:57.563Z,23.00
2022-12-15T04:35:43.839Z,24.60
2022-12-15T04:38:37.556Z,22.13
2022-12-15T04:41:24.812Z,23.80
2022-12-15T04:44:10.802Z,24.07
2022-12-15T04:46:56.758Z,25.17
2022-12-15T04:49:42.796Z,22.73
2022-12-15T04:52:29.131Z,23.90
2022-12-15T04:55:15.423Z,24.00
2022-12-15T04:58:01.782Z,24.57
2022-12-15T05:00:47.971Z,25.40
2022-12-15T05:03:34.841Z,24.67
2022-12-15T05:06:21.226Z,25.43
2022-12-15T05:09:07.535Z,25.97
2022-12-15T05:11:53.926Z,26.53
2022-12-15T05:14:40.298Z,25.97
2022-12-15T05:17:26.670Z,26.10
2022-12-15T05:20:12.717Z,24.93
2022-12-15T05:22:58.958Z,25.07
2022-12-15T05:25:45.175Z,25.60
2022-12-15T05:28:31.398Z,27.10
2022-12-15T05:31:17.742Z,26.00
2022-12-15T05:33:45.400Z,29.33
2022-12-15T05:36:12.974Z,26.60
2022-12-15T05:38:40.803Z,25.93
2022-12-15T05:41:08.707Z,28.30
2022-12-15T05:43:36.276Z,27.67
2022-12-15T05:46:06.041Z,24.87
2022-12-15T05:48:33.916Z,31.10
2022-12-15T05:51:19.336Z,28.60
2022-12-15T05:53:46.933Z,29.90
2022-12-15T05:56:15.919Z,27.57
2022-12-15T05:58:45.609Z,26.10
2022-12-15T06:01:19.797Z,27.93
2022-12-15T06:03:48.394Z,28.67
2022-12-15T06:06:16.107Z,29.03
2022-12-15T06:08:45.351Z,30.23
2022-12-15T06:11:33.391Z,27.13
2022-12-15T06:14:06.012Z,27.23
2022-12-15T06:16:50.515Z,28.83
2022-12-15T06:19:23.674Z,26.90
2022-12-15T06:21:54.162Z,28.77
2022-12-15T06:24:22.537Z,27.27
2022-12-15T06:26:50.912Z,26.57
2022-12-15T06:29:20.037Z,28.17
2022-12-15T06:31:48.230Z,29.67
2022-12-15T06:34:18.066Z,32.13
2022-12-15T06:36:46.181Z,29.40
2022-12-15T06:39:17.367Z,26.90
2022-12-15T06:41:45.427Z,29.80
2022-12-15T06:44:16.710Z,27.87
2022-12-15T06:46:46.232Z,30.00
2022-12-15T06:49:14.766Z,29.00
2022-12-15T06:51:44.106Z,31.57
2022-12-15T06:54:13.118Z,29.77
2022-12-15T06:56:41.227Z,28.60
2022-12-15T06:59:10.765Z,31.07
2022-12-15T07:01:38.752Z,30.73
2022-12-15T07:04:07.202Z,30.10
2022-12-15T07:06:38.007Z,27.50
2022-12-15T07:09:16.215Z,27.17
2022-12-15T07:11:44.249Z,28.57
2022-12-15T07:14:11.919Z,27.70
2022-12-15T07:16:39.607Z,29.10
2022-12-15T07:19:12.943Z,28.67
2022-12-15T07:21:41.620Z,28.90
2022-12-15T07:24:14.316Z,29.50
2022-12-15T07:26:42.736Z,31.40
2022-12-15T07:29:12.000Z,29.33
2022-12-15T07:31:39.905Z,25.93
2022-12-15T07:34:07.568Z,27.87
2022-12-15T07:36:35.286Z,29.40
2022-12-15T07:39:04.912Z,26.90
2022-12-15T07:41:32.733Z,30.00
2022-12-15T07:44:00.324Z,28.87
2022-12-15T07:46:29.229Z,28.80
2022-12-15T07:48:57.091Z,29.10
2022-12-15T07:51:24.780Z,27.10
2022-12-15T07:53:52.914Z,29.00
2022-12-15T07:56:23.083Z,27.97
2022-12-15T07:58:52.205Z,31.70
2022-12-15T08:01:19.845Z,29.77
2022-12-15T08:03:49.487Z,28.90
2022-12-15T08:06:17.338Z,30.97
2022-12-15T08:08:49.896Z,32.03
2022-12-15T08:11:25.017Z,27.77
2022-12-15T08:14:02.561Z,31.43
2022-12-15T08:16:33.417Z,33.67
2022-12-15T08:19:01.108Z,32.43
2022-12-15T08:21:29.094Z,37.10
2022-12-15T08:23:56.804Z,32.97
2022-12-15T08:26:30.039Z,31.23
2022-12-15T08:29:24.512Z,31.07
2022-12-15T08:31:50.711Z,31.77
2022-12-15T08:34:18.372Z,34.50
2022-12-15T08:36:45.972Z,34.50
2022-12-15T08:39:13.873Z,31.73
2022-12-15T08:41:41.672Z,34.90
2022-12-15T08:44:09.371Z,32.20
2022-12-15T08:46:37.035Z,32.50
2022-12-15T08:49:05.037Z,31.37
2022-12-15T08:51:34.227Z,29.57
2022-12-15T08:54:02.888Z,27.73
2022-12-15T08:56:31.576Z,30.37
2022-12-15T08:59:03.479Z,29.50
2022-12-15T09:01:33.467Z,31.60
2022-12-15T09:04:04.267Z,30.53
2022-12-15T09:06:36.989Z,27.83
2022-12-15T09:09:11.560Z,32.30
2022-12-15T09:11:39.594Z,29.30
2022-12-15T09:14:08.193Z,30.93
2022-12-15T09:16:36.248Z,29.70
2022-12-15T09:19:05.095Z,30.63
2022-12-15T09:21:32.794Z,29.40
2022-12-15T09:24:03.818Z,29.97
2022-12-15T09:26:35.174Z,34.97
2022-12-15T09:29:03.408Z,31.80
2022-12-15T09:31:38.267Z,31.73
2022-12-15T09:34:06.675Z,28.90
2022-12-15T09:36:34.543Z,32.20
2022-12-15T09:39:03.141Z,29.47
2022-12-15T09:41:36.135Z,31.73
2022-12-15T09:44:23.119Z,30.70
2022-12-15T09:47:17.767Z,29.30
2022-12-15T09:50:03.731Z,31.73
2022-12-15T09:53:00.429Z,28.13
2022-12-15T09:55:33.354Z,29.87
2022-12-15T09:59:01.957Z,30.83
2022-12-15T10:02:01.484Z,29.40
2022-12-15T10:05:18.654Z,32.00
2022-12-15T10:07:50.519Z,28.97
2022-12-15T10:11:17.156Z,32.80
2022-12-15T10:14:07.560Z,29.20
2022-12-15T10:17:25.325Z,35.77
2022-12-15T10:20:31.348Z,31.20
2022-12-15T10:23:17.389Z,31.60
2022-12-15T10:26:29.873Z,33.13
2022-12-15T10:29:43.252Z,33.53
2022-12-15T10:32:43.036Z,34.77
2022-12-15T10:35:33.085Z,34.90
2022-12-15T10:38:22.193Z,35.87
2022-12-15T10:41:15.498Z,32.00
2022-12-15T10:43:50.349Z,36.93
2022-12-15T10:46:32.347Z,36.37
2022-12-15T10:49:24.531Z,34.60
2022-12-15T10:52:02.889Z,38.50
2022-12-15T10:54:48.463Z,36.57
2022-12-15T10:57:31.785Z,36.70
2022-12-15T11:00:15.028Z,36.83
2022-12-15T11:02:43.165Z,37.17
2022-12-15T11:05:17.352Z,36.87
2022-12-15T11:08:16.124Z,37.10
2022-12-15T11:11:16.830Z,39.17
2022-12-15T11:14:27.530Z,37.40
2022-12-15T11:16:59.811Z,35.90
2022-12-15T11:19:58.083Z,40.77
2022-12-15T11:22:58.641Z,37.43
2022-12-15T11:25:55.218Z,37.97
2022-12-15T11:29:02.012Z,38.63
2022-12-15T11:31:45.371Z,35.00
2022-12-15T11:34:24.934Z,35.50
2022-12-15T11:37:41.229Z,36.20
2022-12-15T11:40:40.704Z,34.50
2022-12-15T11:44:09.939Z,41.40
2022-12-15T11:47:03.284Z,38.23
2022-12-15T11:49:59.151Z,36.67
2022-12-15T11:53:00.622Z,35.03
2022-12-15T11:55:43.436Z,37.57
2022-12-15T11:58:45.095Z,38.97
2022-12-15T12:02:13.304Z,39.97
2022-12-15T12:05:24.135Z,38.60
2022-12-15T12:08:20.212Z,34.10
2022-12-15T12:11:16.972Z,36.67
2022-12-15T12:15:02.112Z,40.33
2022-12-15T12:17:52.025Z,38.80
2022-12-15T12:20:35.428Z,36.80
2022-12-15T12:23:28.980Z,33.90
2022-12-15T12:26:36.917Z,33.13
2022-12-15T12:29:50.821Z,34.60
2022-12-15T12:33:26.334Z,35.70
2022-12-15T12:36:13.298Z,33.50
2022-12-15T12:38:56.923Z,37.13
2022-12-15T12:42:25.752Z,35.30
2022-12-15T12:44:53.648Z,34.10
2022-12-15T12:47:41.059Z,37.70
2022-12-15T12:50:25.226Z,32.90
2022-12-15T12:53:01.165Z,35.30
2022-12-15T12:55:42.599Z,36.00
2022-12-15T12:58:42.219Z,37.50
2022-12-15T13:01:25.423Z,37.97
2022-12-15T13:04:38.759Z,37.53
2022-12-15T13:07:43.350Z,32.43
2022-12-15T13:10:23.519Z,33.00
2022-12-15T13:12:59.779Z,32.00
2022-12-15T13:15:30.520Z,35.20
2022-12-15T13:18:23.386Z,35.87
2022-12-15T13:20:57.614Z,37.00
2022-12-15T13:23:40.251Z,34.20
2022-12-15T13:26:07.932Z,37.30
2022-12-15T13:28:42.903Z,38.47
2022-12-15T13:31:22.774Z,38.47
2022-12-15T13:33:50.439Z,33.60
2022-12-15T13:36:42.436Z,36.27
2022-12-15T13:39:12.813Z,36.07
2022-12-15T13:45:12.285Z,40.20
2022-12-15T13:47:41.053Z,37.77
2022-12-15T13:50:36.356Z,38.30
2022-12-15T13:53:20.282Z,39.23
2022-12-15T13:56:52.960Z,39.97
2022-12-15T13:59:33.436Z,46.03
2022-12-15T14:02:01.429Z,42.97
2022-12-15T14:04:29.243Z,40.97
2022-12-15T14:07:02.907Z,38.93
2022-12-15T14:09:42.310Z,39.30
2022-12-15T14:12:14.596Z,39.43
2022-12-15T14:14:51.099Z,36.53
2022-12-15T14:17:20.603Z,35.97
2022-12-15T14:19:51.474Z,33.37
2022-12-15T14:22:30.509Z,31.93
2022-12-15T14:25:24.218Z,35.17
2022-12-15T14:27:52.252Z,33.70
2022-12-15T14:30:33.426Z,34.80
2022-12-15T14:33:18.612Z,36.47
2022-12-15T14:35:53.188Z,35.53
2022-12-15T14:38:36.706Z,37.73
2022-12-15T14:41:06.484Z,36.70
2022-12-15T14:43:40.334Z,34.37
2022-12-15T14:46:17.627Z,35.60
2022-12-15T14:49:03.203Z,36.00
2022-12-15T14:51:48.585Z,34.50
2022-12-15T14:54:51.465Z,33.27
2022-12-15T14:57:45.061Z,41.40
2022-12-15T15:00:48.862Z,36.73
2022-12-15T15:03:20.208Z,37.17
2022-12-15T15:06:01.233Z,35.80
2022-12-15T15:08:52.726Z,35.63
2022-12-15T15:11:35.538Z,35.00
2022-12-15T15:14:25.761Z,35.03
2022-12-15T15:17:13.305Z,38.40
2022-12-15T15:20:29.164Z,39.17
2022-12-15T15:23:13.297Z,35.77
2022-12-15T15:26:08.326Z,35.67
2022-12-15T15:28:45.205Z,38.63
2022-12-15T15:31:41.379Z,38.80
2022-12-15T15:34:22.864Z,36.97
2022-12-15T15:36:50.556Z,36.17
2022-12-15T15:39:20.407Z,39.70
2022-12-15T15:41:47.959Z,36.63
2022-12-15T15:44:16.463Z,39.47
2022-12-15T15:46:52.755Z,42.47
2022-12-15T15:49:24.612Z,36.30
2022-12-15T15:51:52.360Z,39.03
2022-12-15T15:54:31.771Z,36.27
2022-12-15T15:56:59.485Z,40.40
2022-12-15T15:59:29.079Z,40.10
2022-12-15T16:01:59.257Z,40.67
2022-12-15T16:04:27.676Z,38.50
2022-12-15T16:06:55.436Z,38.17
2022-12-15T16:09:25.690Z,39.27
2022-12-15T16:11:53.832Z,39.70
2022-12-15T16:14:22.096Z,39.83
2022-12-15T16:16:49.869Z,44.60
2022-12-15T16:19:17.675Z,42.97
2022-12-15T16:21:45.517Z,41.37
2022-12-15T16:24:19.875Z,40.97
2022-12-15T16:26:51.754Z,40.30
2022-12-15T16:29:21.999Z,40.13
2022-12-15T16:31:50.047Z,42.80
2022-12-15T16:34:19.321Z,39.17
2022-12-15T16:36:47.677Z,44.43
2022-12-15T16:39:30.613Z,44.30
2022-12-15T16:41:59.244Z,44.70
2022-12-15T16:44:29.632Z,43.03
2022-12-15T16:46:59.125Z,39.87
2022-12-15T16:49:35.145Z,42.03
2022-12-15T16:52:28.735Z,43.50
2022-12-15T16:54:59.892Z,43.33
2022-12-15T16:57:31.630Z,43.70
2022-12-15T17:00:02.679Z,44.87
2022-12-15T17:02:34.728Z,44.40
2022-12-15T17:05:03.236Z,44.63
2022-12-15T17:07:30.888Z,46.07
2022-12-15T17:09:59.200Z,44.70
2022-12-15T17:12:30.200Z,47.27
2022-12-15T17:15:03.094Z,45.90
2022-12-15T17:17:33.999Z,43.50
2022-12-15T17:20:28.568Z,45.37
2022-12-15T17:23:23.175Z,46.57
2022-12-15T17:26:20.999Z,44.60
2022-12-15T17:28:44.398Z,41.33
2022-12-15T17:31:23.519Z,43.30
2022-12-15T17:33:51.707Z,44.53
2022-12-15T17:36:31.017Z,44.37
2022-12-15T17:39:07.912Z,42.40
2022-12-15T17:44:38.822Z,41.37
2022-12-15T17:47:11.112Z,43.80
2022-12-15T17:49:42.656Z,41.43
2022-12-15T17:52:35.346Z,43.97
2022-12-15T17:55:34.794Z,42.53
2022-12-15T17:58:25.921Z,43.40
2022-12-15T18:00:59.526Z,45.90
2022-12-15T18:03:31.104Z,46.87
2022-12-15T18:06:02.350Z,48.53
2022-12-15T18:08:37.622Z,45.70
2022-12-15T18:11:15.748Z,45.10
2022-12-15T18:13:47.141Z,48.33
2022-12-15T18:16:18.570Z,46.77
2022-12-15T18:18:50.189Z,43.87
2022-12-15T18:21:21.666Z,47.63
2022-12-15T18:24:00.759Z,48.00
2022-12-15T18:26:39.360Z,44.77
2022-12-15T18:29:18.299Z,43.00
2022-12-15T18:31:50.713Z,46.50
2022-12-15T18:34:23.632Z,46.67
2022-12-15T18:36:51.654Z,46.47
2022-12-15T18:39:24.312Z,44.27
2022-12-15T18:41:57.353Z,48.13
2022-12-15T18:44:31.596Z,51.40
2022-12-15T18:46:59.277Z,47.83
2022-12-15T18:49:27.628Z,44.03
2022-12-15T18:51:58.308Z,45.17
2022-12-15T18:54:26.719Z,47.83
2022-12-15T18:56:54.826Z,42.30
2022-12-15T18:59:22.896Z,45.53
2022-12-15T19:01:50.979Z,46.10
2022-12-15T19:04:18.881Z,44.93
2022-12-15T19:06:46.667Z,43.47
2022-12-15T19:09:35.824Z,42.20
2022-12-15T19:12:20.078Z,41.93
2022-12-15T19:14:53.037Z,40.43
2022-12-15T19:17:43.390Z,41.80
2022-12-15T19:20:39.241Z,41.83
2022-12-15T19:23:07.964Z,53.30
2022-12-15T19:25:36.524Z,60.77
2022-12-15T19:28:07.071Z,58.67
2022-12-15T19:30:40.232Z,54.20
2022-12-15T19:33:16.812Z,50.33
2022-12-15T19:35:51.209Z,50.23
2022-12-15T19:38:33.140Z,58.70
2022-12-15T19:41:01.180Z,55.00
2022-12-15T19:43:28.975Z,54.47
2022-12-15T19:45:57.916Z,54.73
2022-12-15T19:48:25.556Z,52.67
2022-12-15T19:50:54.606Z,51.27
2022-12-15T19:53:30.128Z,58.50
2022-12-15T19:56:03.656Z,54.23
2022-12-15T19:58:37.076Z,53.97
2022-12-15T20:01:17.908Z,55.67
2022-12-15T20:03:52.292Z,63.77
2022-12-15T20:06:27.327Z,60.80
2022-12-15T20:08:57.007Z,62.10
2022-12-15T20:11:31.724Z,59.17
2022-12-15T20:14:01.696Z,59.20
2022-12-15T20:16:29.364Z,63.83
2022-12-15T20:18:56.972Z,65.13
2022-12-15T20:21:34.560Z,61.30
2022-12-15T20:24:19.478Z,62.57
2022-12-15T20:26:47.979Z,67.30
2022-12-15T20:29:31.865Z,72.07
2022-12-15T20:32:00.238Z,65.07
2022-12-15T20:34:27.936Z,60.77
2022-12-15T20:36:55.693Z,57.83
2022-12-15T20:39:30.726Z,53.37
2022-12-15T20:41:58.604Z,55.00
2022-12-15T20:44:26.351Z,57.00
2022-12-15T20:46:54.848Z,54.77
2022-12-15T20:49:24.225Z,57.73
2022-12-15T20:51:52.912Z,55.03
2022-12-15T20:54:23.660Z,52.50
2022-12-15T20:56:51.854Z,57.80
2022-12-15T20:59:20.043Z,52.67
2022-12-15T21:01:47.818Z,49.13
2022-12-15T21:04:30.508Z,54.70
2022-12-15T21:06:58.222Z,54.83
2022-12-15T21:09:25.963Z,59.13
2022-12-15T21:11:55.249Z,50.73
2022-12-15T21:14:25.071Z,51.07
2022-12-15T21:16:54.132Z,52.87
2022-12-15T21:19:22.863Z,53.17
2022-12-15T21:21:54.939Z,51.83
2022-12-15T21:24:28.827Z,48.77
2022-12-15T21:26:56.967Z,51.13
2022-12-15T21:29:29.086Z,51.40
2022-12-15T21:31:57.411Z,50.87
2022-12-15T21:34:25.653Z,50.40
2022-12-15T21:36:55.592Z,52.20
2022-12-15T21:39:37.207Z,50.93
2022-12-15T21:42:20.983Z,55.70
2022-12-15T21:44:50.404Z,50.63
2022-12-15T21:47:47.637Z,49.40
2022-12-15T21:50:18.165Z,46.07
2022-12-15T21:52:47.752Z,47.70
2022-12-15T21:55:24.328Z,47.60
2022-12-15T21:57:52.500Z,48.27
2022-12-15T22:00:23.612Z,49.30
2022-12-15T22:02:54.266Z,52.60
2022-12-15T22:05:32.565Z,52.37
2022-12-15T22:08:17.988Z,49.47
2022-12-15T22:10:50.330Z,48.60
2022-12-15T22:13:24.380Z,47.93
2022-12-15T22:15:52.204Z,49.17
2022-12-15T22:18:20.084Z,48.57
2022-12-15T22:20:50.739Z,50.20
2022-12-15T22:23:20.659Z,48.40
2022-12-15T22:25:56.372Z,47.70
2022-12-15T22:28:28.723Z,46.97
2022-12-15T22:30:57.283Z,48.00
2022-12-15T22:33:28.218Z,49.80
2022-12-15T22:35:56.916Z,48.23
2022-12-15T22:38:25.304Z,45.27
2022-12-15T22:40:58.644Z,45.33
2022-12-15T22:43:44.581Z,46.30
2022-12-15T22:46:15.708Z,43.90
2022-12-15T22:48:47.684Z,44.20
2022-12-15T22:51:18.999Z,40.47
2022-12-15T22:53:46.867Z,41.07
2022-12-15T22:56:31.497Z,45.10
2022-12-15T22:59:12.884Z,43.87
2022-12-15T23:01:40.834Z,44.90
2022-12-15T23:04:08.594Z,44.93
2022-12-15T23:06:36.203Z,43.67
2022-12-15T23:09:05.185Z,40.63
2022-12-15T23:11:39.620Z,40.50
2022-12-15T23:14:16.892Z,41.37
2022-12-15T23:16:46.791Z,39.23
2022-12-15T23:19:23.988Z,44.37
2022-12-15T23:21:52.418Z,41.90
2022-12-15T23:24:20.535Z,42.10
2022-12-15T23:26:48.141Z,38.23
2022-12-15T23:29:15.869Z,38.97
2022-12-15T23:31:43.620Z,43.67
2022-12-15T23:34:11.735Z,41.67
2022-12-15T23:36:39.614Z,43.57
2022-12-15T23:39:07.223Z,43.13
2022-12-15T23:41:37.518Z,45.90
2022-12-15T23:44:08.424Z,40.30
2022-12-15T23:46:37.573Z,42.67
2022-12-15T23:49:07.620Z,42.47
2022-12-15T23:51:36.519Z,43.40
2022-12-15T23:54:05.802Z,42.30
2022-12-15T23:56:34.750Z,42.70
2022-12-15T23:59:03.707Z,42.47
